createdAt,value
2018-09-25T00:00:01.412Z,6
2018-09-25T00:05:03.790Z,4
2018-09-25T00:10:06.089Z,3
2018-09-25T00:15:08.800Z,2
2018-09-25T00:20:10.987Z,3
2018-09-25T00:25:13.374Z,2
2018-09-25T00:30:15.784Z,4
2018-09-25T00:35:18.258Z,2
2018-09-25T00:45:23.114Z,7
2018-09-25T00:50:25.539Z,5
2018-09-25T01:10:35.307Z,8
2018-09-25T07:38:43.457Z,7
2018-09-25T07:43:45.984Z,8
2018-09-25T07:48:48.338Z,8
2018-09-25T07:53:50.787Z,11
2018-09-25T07:58:53.338Z,10
2018-09-25T08:03:55.708Z,8
2018-09-25T08:08:59.052Z,10
2018-09-25T08:14:00.665Z,9
2018-09-25T08:19:03.025Z,9
2018-09-25T08:24:05.594Z,6
2018-09-25T08:29:07.959Z,5
2018-09-25T08:34:10.388Z,7
2018-09-25T08:39:12.901Z,9
2018-09-25T08:49:17.701Z,7
2018-09-25T08:54:20.248Z,7
2018-09-25T08:59:22.657Z,9
2018-09-25T09:04:24.997Z,6
2018-09-25T09:09:27.456Z,5
2018-09-25T09:14:31.831Z,10
2018-09-25T09:19:32.436Z,7
2018-09-25T09:24:34.815Z,8
2018-09-25T09:29:37.277Z,8
2018-09-25T09:34:39.671Z,6
2018-09-25T09:39:42.168Z,6
2018-09-25T09:49:46.991Z,2
2018-09-25T09:54:49.509Z,7
2018-09-25T09:59:51.905Z,6
2018-09-25T10:04:54.433Z,5
2018-09-25T10:09:56.837Z,6
2018-09-25T10:14:59.206Z,4
2018-09-25T10:20:01.846Z,4
2018-09-25T10:25:04.106Z,6
2018-09-25T10:30:06.745Z,4
2018-09-25T10:35:08.948Z,2
2018-09-25T10:40:11.369Z,2
2018-09-25T10:45:13.841Z,10
2018-09-25T10:50:16.292Z,6
2018-09-25T10:55:18.734Z,21
2018-09-25T11:00:21.647Z,19
2018-09-25T11:05:23.614Z,3
2018-09-25T11:10:26.045Z,4
2018-09-25T11:15:28.563Z,6
2018-09-25T11:20:30.918Z,4
2018-09-25T11:25:33.380Z,5
2018-09-25T11:30:36.163Z,4
2018-09-25T11:35:38.214Z,5
2018-09-25T11:40:40.799Z,5
2018-09-25T11:45:43.133Z,4
2018-09-25T11:50:45.532Z,4
2018-09-25T11:55:47.990Z,6
2018-09-25T12:00:50.446Z,2
2018-09-25T12:05:52.858Z,6
2018-09-25T12:10:55.325Z,2
2018-09-25T12:15:58.029Z,3
2018-09-25T12:21:00.177Z,4
2018-09-25T12:26:02.634Z,5
2018-09-25T12:31:05.094Z,5
2018-09-25T12:36:07.489Z,4
2018-09-25T12:41:09.996Z,3
2018-09-25T12:46:12.656Z,5
2018-09-25T12:51:14.950Z,3
2018-09-25T12:56:17.349Z,4
2018-09-25T13:01:19.690Z,5
2018-09-25T13:06:22.200Z,4
2018-09-25T13:11:24.681Z,2
2018-09-25T13:16:27.051Z,4
2018-09-25T13:21:29.554Z,5
2018-09-25T13:26:32.104Z,3
2018-09-25T13:31:34.410Z,3
2018-09-25T13:36:36.892Z,6
2018-09-25T13:41:39.478Z,3
2018-09-25T13:46:41.882Z,7
2018-09-25T13:51:44.140Z,3
2018-09-25T13:56:46.571Z,5
2018-09-25T14:01:49.272Z,2
2018-09-25T14:06:51.551Z,7
2018-09-25T14:11:53.903Z,3
2018-09-25T14:16:56.311Z,7
2018-09-25T14:21:58.888Z,3
2018-09-25T14:27:01.231Z,5
2018-09-25T14:32:03.870Z,2
2018-09-25T14:37:06.210Z,3
2018-09-25T14:42:08.548Z,3
2018-09-25T14:47:10.971Z,3
2018-09-25T14:52:13.465Z,3
2018-09-25T14:57:15.846Z,6
2018-09-25T15:02:18.372Z,4
2018-09-25T15:07:20.830Z,1
2018-09-25T15:12:23.242Z,4
2018-09-25T15:17:25.900Z,5
2018-09-25T15:22:28.070Z,7
2018-09-25T15:27:30.693Z,4
2018-09-25T15:32:32.939Z,9
2018-09-25T15:37:35.414Z,4
2018-09-25T15:42:38.085Z,4
2018-09-25T15:47:40.359Z,5
2018-09-25T15:52:42.877Z,4
2018-09-25T15:57:45.158Z,6
2018-09-25T16:02:47.829Z,4
2018-09-25T16:07:50.148Z,4
2018-09-25T16:12:52.548Z,5
2018-09-25T16:17:55.147Z,4
2018-09-25T16:22:57.333Z,4
2018-09-25T16:27:59.810Z,3
2018-09-25T16:33:02.555Z,7
2018-09-25T16:38:04.900Z,5
2018-09-25T16:43:07.190Z,8
2018-09-25T16:48:09.552Z,10
2018-09-25T16:53:12.011Z,5
2018-09-25T16:58:14.605Z,7
2018-09-25T17:03:16.864Z,4
2018-09-25T17:08:19.360Z,4
2018-09-25T17:13:21.830Z,3
2018-09-25T17:18:24.177Z,3
2018-09-25T17:23:26.611Z,3
2018-09-25T17:28:29.065Z,3
2018-09-25T17:33:31.533Z,3
2018-09-25T17:38:33.948Z,4
2018-09-25T17:43:36.800Z,4
2018-09-25T17:48:38.940Z,4
2018-09-25T17:53:41.574Z,2
2018-09-25T17:58:43.985Z,6
2018-09-25T18:03:46.233Z,4
2018-09-25T18:08:48.614Z,3
2018-09-25T18:13:52.861Z,6
2018-09-25T18:18:53.562Z,5
2018-09-25T18:23:55.960Z,6
2018-09-25T18:28:58.423Z,6
2018-09-25T18:34:00.886Z,6
2018-09-25T18:39:03.266Z,6
2018-09-25T18:44:05.716Z,4
2018-09-25T18:49:08.213Z,11
2018-09-25T18:54:11.197Z,23
2018-09-25T18:59:13.069Z,65
2018-09-25T19:04:15.550Z,80
2018-09-25T19:09:18.153Z,33
2018-09-25T19:14:21.056Z,23
2018-09-25T19:19:22.815Z,15
2018-09-25T19:24:25.305Z,28
2018-09-25T19:29:28.109Z,44
2018-09-25T19:34:30.207Z,30
2018-09-25T19:39:32.656Z,8
2018-09-25T19:49:37.565Z,10
2018-09-25T19:54:39.945Z,6
2018-09-25T19:59:42.448Z,6
2018-09-25T20:04:44.896Z,8
2018-09-25T20:09:47.308Z,8
2018-09-25T20:14:49.759Z,6
2018-09-25T20:19:52.362Z,5
2018-09-25T20:24:54.634Z,5
2018-09-25T20:29:57.075Z,4
2018-09-25T20:34:59.597Z,6
